Time;durP1;ratioP1;P1;durP2;ratioP2;P2;SDS_P1;SDS_P2;PMS_P1;PMS_P2;Temp;Humidity;BMP_temperature;BMP_pressure;BME280_temperature;BME280_humidity;BME280_pressure;Samples;Min_cycle;Max_cycle;Signal;HPM_P1;HPM_P2
2023/11/10 00:02:14;;;;;;;1.63;0.90;;;;;;;;;;6160151;23;20407;-83
2023/11/10 00:04:50;;;;;;;3.53;1.03;;;;;;;;;;6162311;23;20435;-84
2023/11/10 00:07:32;;;;;;;0.53;0.53;;;;;;;;;;6167801;23;20415;-85
2023/11/10 00:13:16;;;;;;;1.23;0.80;;;;;;;;;;6158876;23;20432;-83
2023/11/10 00:15:49;;;;;;;1.00;0.87;;;;;;;;;;6165029;23;20502;-84
2023/11/10 00:18:26;;;;;;;4.80;1.00;;;;;;;;;;6143084;23;20438;-84
2023/11/10 00:21:03;;;;;;;0.60;0.60;;;;;;;;;;6142261;23;20433;-83
2023/11/10 00:23:30;;;;;;;1.83;1.03;;;;;;;;;;6165107;23;20442;-84
2023/11/10 00:26:06;;;;;;;0.90;0.80;;;;;;;;;;6167027;23;20426;-83
2023/11/10 00:28:38;;;;;;;0.80;0.67;;;;;;;;;;6138612;23;20434;-84
2023/11/10 00:31:13;;;;;;;1.20;0.70;;;;;;;;;;6154259;23;20388;-87
2023/11/10 00:34:30;;;;;;;3.90;1.00;;;;;;;;;;6148775;23;20402;-86
2023/11/10 00:37:18;;;;;;;1.07;0.80;;;;;;;;;;6145523;23;20402;-83
2023/11/10 00:40:11;;;;;;;1.57;0.90;;;;;;;;;;6134598;23;20461;-85
2023/11/10 00:49:01;;;;;;;0.70;0.70;;;;;;;;;;6167935;23;20425;-84
2023/11/10 00:51:52;;;;;;;0.67;0.67;;;;;;;;;;6141808;23;20415;-85
2023/11/10 00:54:40;;;;;;;2.07;0.77;;;;;;;;;;6116739;23;20935;-84
2023/11/10 00:57:21;;;;;;;1.83;0.50;;;;;;;;;;6139292;23;20410;-85
2023/11/10 00:59:59;;;;;;;1.30;0.60;;;;;;;;;;6141538;23;20637;-85
2023/11/10 01:02:30;;;;;;;3.50;0.80;;;;;;;;;;6166929;23;20402;-84
2023/11/10 01:05:11;;;;;;;1.97;0.87;;;;;;;;;;6170400;23;20435;-85
2023/11/10 01:08:35;;;;;;;2.20;0.93;;;;;;;;;;6172951;23;20389;-84
2023/11/10 01:11:43;;;;;;;1.20;1.10;;;;;;;;;;6149713;23;20387;-86
2023/11/10 01:14:52;;;;;;;1.67;1.57;;;;;;;;;;6152714;23;20370;-84
2023/11/10 01:17:28;;;;;;;2.00;1.37;;;;;;;;;;6167069;23;20505;-82
2023/11/10 01:23:21;;;;;;;1.37;0.67;;;;;;;;;;6142190;23;20429;-83
2023/11/10 01:26:03;;;;;;;0.93;0.80;;;;;;;;;;6144183;23;20423;-84
2023/11/10 01:28:51;;;;;;;1.57;0.80;;;;;;;;;;6144151;23;20407;-83
2023/11/10 01:31:38;;;;;;;1.30;0.90;;;;;;;;;;6078936;23;20404;-84
2023/11/10 01:34:40;;;;;;;0.60;0.57;;;;;;;;;;6137879;23;20404;-84
2023/11/10 01:37:23;;;;;;;0.93;0.87;;;;;;;;;;6144679;23;20418;-83
2023/11/10 01:40:11;;;;;;;2.40;1.17;;;;;;;;;;6162891;23;20430;-84
2023/11/10 01:42:45;;;;;;;1.10;0.80;;;;;;;;;;6182965;23;20394;-84
2023/11/10 01:45:38;;;;;;;2.13;0.80;;;;;;;;;;6174027;23;20453;-85
2023/11/10 01:54:22;;;;;;;1.63;0.60;;;;;;;;;;6238018;23;20361;-83
2023/11/10 01:57:09;;;;;;;1.23;0.57;;;;;;;;;;6187895;23;20391;-84
2023/11/10 01:59:48;;;;;;;1.50;0.60;;;;;;;;;;6183055;23;20501;-84
2023/11/10 02:02:42;;;;;;;1.00;0.67;;;;;;;;;;6149481;23;20425;-84
2023/11/10 02:05:37;;;;;;;2.03;1.00;;;;;;;;;;6169379;23;20455;-85
2023/11/10 02:08:36;;;;;;;0.87;0.70;;;;;;;;;;6160576;23;20415;-84
2023/11/10 02:11:51;;;;;;;1.27;0.60;;;;;;;;;;6182399;23;20397;-83
2023/11/10 02:14:32;;;;;;;1.27;0.70;;;;;;;;;;6138188;23;20390;-84
2023/11/10 02:17:20;;;;;;;1.23;0.70;;;;;;;;;;6187129;23;20375;-85
2023/11/10 02:22:57;;;;;;;1.10;0.60;;;;;;;;;;6209645;23;20421;-82
2023/11/10 02:25:57;;;;;;;2.60;0.90;;;;;;;;;;6179906;23;20414;-84
2023/11/10 02:28:45;;;;;;;2.40;0.80;;;;;;;;;;6182039;23;20401;-85
2023/11/10 02:31:22;;;;;;;1.37;0.70;;;;;;;;;;6182351;23;20429;-85
2023/11/10 02:34:18;;;;;;;2.27;0.93;;;;;;;;;;6163157;23;20441;-85
2023/11/10 02:37:22;;;;;;;2.00;0.67;;;;;;;;;;6202800;23;20401;-84
2023/11/10 02:40:11;;;;;;;1.17;0.67;;;;;;;;;;6183207;23;20512;-85
2023/11/10 02:43:02;;;;;;;3.33;0.97;;;;;;;;;;6158135;23;20520;-84
2023/11/10 02:46:14;;;;;;;1.27;0.70;;;;;;;;;;4799129;27;8728469;-85
2023/11/10 02:49:25;;;;;;;2.63;0.77;;;;;;;;;;5070593;28;20227;-84
2023/11/10 02:52:06;;;;;;;1.13;1.03;;;;;;;;;;5066389;28;20489;-84
2023/11/10 02:54:54;;;;;;;0.87;0.60;;;;;;;;;;5073907;28;20503;-83
2023/11/10 02:57:41;;;;;;;1.17;0.70;;;;;;;;;;5084326;28;20436;-86
2023/11/10 03:00:40;;;;;;;1.63;0.90;;;;;;;;;;5064816;28;20428;-82
2023/11/10 03:03:42;;;;;;;2.07;0.73;;;;;;;;;;5080947;28;20978;-83
2023/11/10 03:06:14;;;;;;;1.23;0.70;;;;;;;;;;5076866;28;20471;-83
2023/11/10 03:09:04;;;;;;;1.00;0.83;;;;;;;;;;5064212;28;20432;-84
2023/11/10 03:11:42;;;;;;;2.03;1.10;;;;;;;;;;5063567;28;20445;-84
2023/11/10 03:14:33;;;;;;;1.93;0.83;;;;;;;;;;5085684;28;20435;-83
2023/11/10 03:17:21;;;;;;;1.40;0.93;;;;;;;;;;5054851;28;20428;-83
2023/11/10 03:20:10;;;;;;;2.40;1.00;;;;;;;;;;5077829;28;20434;-85
2023/11/10 03:22:44;;;;;;;1.17;0.93;;;;;;;;;;5079028;28;20451;-85
2023/11/10 03:25:36;;;;;;;1.93;0.90;;;;;;;;;;5076832;28;20469;-84
2023/11/10 03:28:12;;;;;;;1.60;0.90;;;;;;;;;;5074426;28;20470;-84
2023/11/10 03:30:58;;;;;;;1.50;0.70;;;;;;;;;;5057954;28;20962;-85
2023/11/10 03:33:29;;;;;;;2.40;0.90;;;;;;;;;;5081998;28;20451;-83
2023/11/10 03:36:04;;;;;;;3.40;1.20;;;;;;;;;;5067971;28;20997;-85
2023/11/10 03:38:43;;;;;;;3.30;1.10;;;;;;;;;;5061457;28;20482;-84
2023/11/10 03:41:21;;;;;;;1.93;0.83;;;;;;;;;;5055409;28;20504;-84
2023/11/10 03:44:05;;;;;;;1.50;0.80;;;;;;;;;;5060006;28;20486;-84
2023/11/10 03:46:49;;;;;;;2.70;0.80;;;;;;;;;;5055840;28;20479;-83
2023/11/10 03:49:35;;;;;;;3.27;1.13;;;;;;;;;;5056492;28;20443;-83
2023/11/10 03:52:11;;;;;;;2.77;1.27;;;;;;;;;;5067442;28;20529;-84
2023/11/10 03:54:41;;;;;;;1.80;0.90;;;;;;;;;;5086519;28;20444;-83
2023/11/10 03:57:15;;;;;;;3.03;0.97;;;;;;;;;;5044963;28;20449;-83
2023/11/10 03:59:47;;;;;;;2.00;0.70;;;;;;;;;;5045867;28;20452;-84
2023/11/10 04:02:26;;;;;;;0.90;0.70;;;;;;;;;;5045024;28;20876;-84
2023/11/10 04:05:01;;;;;;;1.20;0.80;;;;;;;;;;5054461;28;20488;-85
2023/11/10 04:07:41;;;;;;;3.30;0.80;;;;;;;;;;5043619;28;20449;-85
2023/11/10 04:10:26;;;;;;;2.37;1.00;;;;;;;;;;5043546;28;20440;-85
2023/11/10 04:13:00;;;;;;;2.20;0.77;;;;;;;;;;5040063;28;20543;-86
2023/11/10 04:15:45;;;;;;;3.70;0.90;;;;;;;;;;5049338;28;20485;-85
2023/11/10 04:18:16;;;;;;;2.10;1.10;;;;;;;;;;5053430;28;20487;-83
2023/11/10 04:20:49;;;;;;;4.87;1.20;;;;;;;;;;5037936;28;20999;-83
2023/11/10 04:23:20;;;;;;;1.33;0.73;;;;;;;;;;5040452;28;20460;-85
2023/11/10 04:26:10;;;;;;;1.17;0.80;;;;;;;;;;5039058;28;20559;-84
2023/11/10 04:28:41;;;;;;;1.23;0.80;;;;;;;;;;5040418;28;20920;-84
2023/11/10 04:31:16;;;;;;;1.87;0.80;;;;;;;;;;5048115;28;20444;-83
2023/11/10 04:33:46;;;;;;;2.80;0.80;;;;;;;;;;5043240;28;20460;-85
2023/11/10 04:36:18;;;;;;;3.00;1.10;;;;;;;;;;5044872;28;20468;-84
2023/11/10 04:38:58;;;;;;;1.50;0.80;;;;;;;;;;5059510;28;20448;-85
2023/11/10 04:41:32;;;;;;;3.37;0.90;;;;;;;;;;5047806;28;20463;-85
2023/11/10 04:44:09;;;;;;;2.40;1.00;;;;;;;;;;5044878;28;20452;-86
2023/11/10 04:46:41;;;;;;;1.53;0.97;;;;;;;;;;5058961;28;20479;-85
2023/11/10 04:49:16;;;;;;;0.80;0.77;;;;;;;;;;5051166;28;20574;-85
2023/11/10 04:52:08;;;;;;;2.50;1.00;;;;;;;;;;5066850;28;20469;-85
2023/11/10 04:54:46;;;;;;;5.00;1.03;;;;;;;;;;5060109;28;20452;-84
2023/11/10 04:57:24;;;;;;;2.63;0.70;;;;;;;;;;5041857;28;20955;-84
2023/11/10 05:00:06;;;;;;;2.60;1.00;;;;;;;;;;5040832;28;20464;-83
2023/11/10 05:02:52;;;;;;;1.53;0.90;;;;;;;;;;5037387;28;20454;-82
2023/11/10 05:05:40;;;;;;;1.47;0.80;;;;;;;;;;5050955;28;20848;-84
2023/11/10 05:08:25;;;;;;;;;;;;;;;;;;;;;
2023/11/10 05:11:00;;;;;;;1.13;0.90;;;;;;;;;;5052520;28;20513;-84
2023/11/10 05:13:37;;;;;;;1.50;1.10;;;;;;;;;;5041499;28;20460;-84
2023/11/10 05:16:31;;;;;;;1.63;0.87;;;;;;;;;;5032816;28;21004;-84
2023/11/10 05:19:06;;;;;;;1.70;1.17;;;;;;;;;;5011300;28;20458;-85
2023/11/10 05:22:01;;;;;;;1.93;0.83;;;;;;;;;;5051118;28;20448;-85
2023/11/10 05:24:43;;;;;;;4.43;1.10;;;;;;;;;;5050084;28;20479;-85
2023/11/10 05:27:23;;;;;;;1.03;0.93;;;;;;;;;;5049342;28;20466;-84
2023/11/10 05:30:06;;;;;;;;;;;;;;;;;;;;;
2023/11/10 05:32:36;;;;;;;0.97;0.73;;;;;;;;;;5054472;28;20478;-83
2023/11/10 05:35:10;;;;;;;0.87;0.57;;;;;;;;;;5041679;28;20472;-84
2023/11/10 05:37:57;;;;;;;1.40;1.00;;;;;;;;;;5043745;28;20459;-84
2023/11/10 05:40:57;;;;;;;0.90;0.73;;;;;;;;;;5066713;28;20439;-86
2023/11/10 05:43:34;;;;;;;1.87;0.87;;;;;;;;;;5065088;28;20536;-84
2023/11/10 05:46:18;;;;;;;2.10;0.83;;;;;;;;;;5052834;28;20549;-84
2023/11/10 05:49:00;;;;;;;1.83;0.70;;;;;;;;;;5060979;28;20456;-84
2023/11/10 05:51:37;;;;;;;2.90;0.80;;;;;;;;;;5058988;28;20448;-83
2023/11/10 05:54:16;;;;;;;1.30;0.97;;;;;;;;;;5053458;28;20496;-84
2023/11/10 05:57:03;;;;;;;2.40;0.80;;;;;;;;;;5061444;28;20503;-86
2023/11/10 05:59:47;;;;;;;2.13;0.83;;;;;;;;;;5048992;28;20432;-83
2023/11/10 06:05:48;;;;;;;2.17;1.10;;;;;;;;;;5049401;28;20484;-86
2023/11/10 06:08:48;;;;;;;2.83;0.90;;;;;;;;;;5059551;28;20473;-84
2023/11/10 06:11:22;;;;;;;1.17;0.90;;;;;;;;;;5043211;28;20453;-80
2023/11/10 06:13:56;;;;;;;1.00;0.83;;;;;;;;;;5059555;28;20460;-87
2023/11/10 06:16:34;;;;;;;2.10;0.83;;;;;;;;;;5040459;28;20467;-84
2023/11/10 06:19:06;;;;;;;1.50;0.73;;;;;;;;;;5050932;28;20532;-83
2023/11/10 06:21:49;;;;;;;2.20;1.20;;;;;;;;;;5065073;28;20467;-83
2023/11/10 06:24:35;;;;;;;2.07;1.00;;;;;;;;;;5012091;28;20444;-83
2023/11/10 06:27:04;;;;;;;1.93;1.30;;;;;;;;;;5058235;28;20461;-84
2023/11/10 06:29:40;;;;;;;2.30;0.97;;;;;;;;;;5039540;28;20494;-86
2023/11/10 06:32:31;;;;;;;4.20;0.90;;;;;;;;;;5040763;28;20441;-84
2023/11/10 06:35:08;;;;;;;1.40;0.90;;;;;;;;;;5052779;28;20483;-84
2023/11/10 06:37:55;;;;;;;4.83;3.10;;;;;;;;;;5032509;28;20944;-85
2023/11/10 06:41:03;;;;;;;3.70;1.50;;;;;;;;;;5043762;28;20475;-84
2023/11/10 06:44:08;;;;;;;;;;;;;;;;;;;;;
2023/11/10 06:47:12;;;;;;;2.03;1.63;;;;;;;;;;5060286;28;20482;-84
2023/11/10 06:50:19;;;;;;;4.00;1.00;;;;;;;;;;5041455;28;20455;-84
2023/11/10 06:53:14;;;;;;;1.83;1.03;;;;;;;;;;5035430;28;20470;-85
2023/11/10 06:55:53;;;;;;;4.47;1.13;;;;;;;;;;5058261;28;20484;-85
2023/11/10 06:58:48;;;;;;;2.20;1.10;;;;;;;;;;5041100;28;20444;-82
2023/11/10 07:01:20;;;;;;;2.30;1.43;;;;;;;;;;5043998;28;20450;-83
2023/11/10 07:11:07;;;;;;;2.40;0.80;;;;;;;;;;5056239;28;20464;-85
2023/11/10 07:14:08;;;;;;;3.23;2.63;;;;;;;;;;5048556;28;20448;-86
2023/11/10 07:17:19;;;;;;;6.40;2.17;;;;;;;;;;5040365;28;20936;-85
2023/11/10 07:19:57;;;;;;;4.20;1.37;;;;;;;;;;5044212;28;20484;-85
2023/11/10 07:25:53;;;;;;;1.97;1.20;;;;;;;;;;5046306;28;20481;-86
2023/11/10 07:28:49;;;;;;;2.30;0.80;;;;;;;;;;5023972;28;20479;-85
2023/11/10 07:31:50;;;;;;;3.60;1.43;;;;;;;;;;5043882;28;20510;-86
2023/11/10 07:34:40;;;;;;;5.70;1.47;;;;;;;;;;5032945;28;20794;-84
2023/11/10 07:37:36;;;;;;;1.17;0.87;;;;;;;;;;5051800;28;20444;-83
2023/11/10 07:40:40;;;;;;;3.13;1.13;;;;;;;;;;5041511;28;20449;-83
2023/11/10 07:46:56;;;;;;;1.70;1.07;;;;;;;;;;5049706;28;20487;-83
2023/11/10 07:52:58;;;;;;;3.47;1.53;;;;;;;;;;4989411;28;20439;-85
2023/11/10 07:55:34;;;;;;;2.40;1.00;;;;;;;;;;4988002;28;20505;-84
2023/11/10 07:58:29;;;;;;;2.30;1.03;;;;;;;;;;4988689;28;20459;-85
2023/11/10 08:01:50;;;;;;;3.80;1.20;;;;;;;;;;4986387;28;20445;-83
2023/11/10 08:04:36;;;;;;;6.60;0.97;;;;;;;;;;4935404;28;20447;-85
2023/11/10 08:07:13;;;;;;;2.00;1.30;;;;;;;;;;4997658;28;20640;-86
2023/11/10 08:09:42;;;;;;;1.10;1.00;;;;;;;;;;4994555;28;20602;-84
2023/11/10 08:12:26;;;;;;;2.30;0.90;;;;;;;;;;4957414;28;20443;-85
2023/11/10 08:14:57;;;;;;;1.13;1.03;;;;;;;;;;4979323;28;20545;-83
2023/11/10 08:17:38;;;;;;;1.67;1.10;;;;;;;;;;4958703;28;20554;-83
2023/11/10 08:20:14;;;;;;;2.57;0.90;;;;;;;;;;5030653;28;20547;-83
2023/11/10 08:22:51;;;;;;;1.90;1.63;;;;;;;;;;5037239;28;20457;-85
2023/11/10 08:25:55;;;;;;;4.77;1.40;;;;;;;;;;5059130;28;20465;-88
2023/11/10 08:28:32;;;;;;;1.90;1.37;;;;;;;;;;5052707;28;20454;-86
2023/11/10 08:31:04;;;;;;;1.30;1.00;;;;;;;;;;5074096;28;20516;-89
2023/11/10 08:33:49;;;;;;;1.27;1.00;;;;;;;;;;5078015;28;20459;-87
2023/11/10 08:36:28;;;;;;;1.27;1.17;;;;;;;;;;5077722;28;20464;-86
2023/11/10 08:39:02;;;;;;;1.80;1.23;;;;;;;;;;5060861;28;20531;-84
2023/11/10 08:41:45;;;;;;;1.10;1.00;;;;;;;;;;5068871;28;20508;-85
2023/11/10 08:44:26;;;;;;;2.80;0.90;;;;;;;;;;5052437;28;20456;-84
2023/11/10 08:47:04;;;;;;;2.10;0.97;;;;;;;;;;5047173;28;20891;-83
2023/11/10 08:49:38;;;;;;;1.67;1.10;;;;;;;;;;5043170;28;20480;-84
2023/11/10 08:52:17;;;;;;;1.30;0.70;;;;;;;;;;5047011;28;20449;-86
2023/11/10 08:54:49;;;;;;;5.17;1.10;;;;;;;;;;5024704;28;20568;-83
2023/11/10 08:57:19;;;;;;;2.13;0.83;;;;;;;;;;5046638;28;20440;-83
2023/11/10 08:59:48;;;;;;;3.17;1.10;;;;;;;;;;5062192;28;20507;-86
2023/11/10 09:02:18;;;;;;;2.10;0.97;;;;;;;;;;5047339;28;20932;-84
2023/11/10 09:04:51;;;;;;;2.03;1.00;;;;;;;;;;5048704;28;20905;-84
2023/11/10 09:16:44;;;;;;;1.53;0.80;;;;;;;;;;4998573;28;20471;-85
2023/11/10 09:19:26;;;;;;;1.20;0.93;;;;;;;;;;4994260;28;20481;-84
2023/11/10 09:21:58;;;;;;;1.77;0.67;;;;;;;;;;4977301;28;20456;-84
2023/11/10 09:24:26;;;;;;;0.80;0.80;;;;;;;;;;4984632;28;20479;-83
2023/11/10 09:26:53;;;;;;;1.30;1.13;;;;;;;;;;4982958;28;20507;-84
2023/11/10 09:29:20;;;;;;;3.03;1.20;;;;;;;;;;4981236;28;20459;-83
2023/11/10 09:31:56;;;;;;;3.40;1.27;;;;;;;;;;4987435;28;20449;-81
2023/11/10 09:34:31;;;;;;;4.70;1.10;;;;;;;;;;4978411;28;20490;-82
2023/11/10 09:40:13;;;;;;;1.33;0.83;;;;;;;;;;4994034;28;20497;-83
2023/11/10 09:42:56;;;;;;;4.73;1.20;;;;;;;;;;4997268;28;20440;-85
2023/11/10 09:45:36;;;;;;;6.43;3.97;;;;;;;;;;5056093;28;20595;-84
2023/11/10 09:48:09;;;;;;;2.67;0.93;;;;;;;;;;5043776;28;20464;-84
2023/11/10 09:50:56;;;;;;;2.30;1.17;;;;;;;;;;5061573;28;20479;-83
2023/11/10 09:53:38;;;;;;;4.53;0.80;;;;;;;;;;5012500;28;20458;-84
2023/11/10 09:56:09;;;;;;;3.33;1.10;;;;;;;;;;5060293;28;21047;-83
2023/11/10 09:58:48;;;;;;;1.43;0.80;;;;;;;;;;5057934;28;20539;-83
2023/11/10 10:01:28;;;;;;;2.10;0.73;;;;;;;;;;5040232;28;20451;-84
2023/11/10 10:04:16;;;;;;;1.30;0.93;;;;;;;;;;5048602;28;20448;-83
2023/11/10 10:07:04;;;;;;;2.87;0.73;;;;;;;;;;5041960;28;20472;-85
2023/11/10 10:09:49;;;;;;;1.97;1.10;;;;;;;;;;5046773;28;20460;-83
2023/11/10 10:12:37;;;;;;;1.10;1.00;;;;;;;;;;5044630;28;20444;-84
2023/11/10 10:15:12;;;;;;;1.43;0.60;;;;;;;;;;5045886;28;20472;-86
2023/11/10 10:17:42;;;;;;;1.53;1.00;;;;;;;;;;5044488;28;21031;-84
2023/11/10 10:20:19;;;;;;;1.67;0.80;;;;;;;;;;5055521;28;20465;-85
2023/11/10 10:22:57;;;;;;;1.50;0.80;;;;;;;;;;5051261;28;20487;-83
2023/11/10 10:25:43;;;;;;;2.17;1.30;;;;;;;;;;5058075;28;20858;-82
2023/11/10 10:28:26;;;;;;;3.33;0.90;;;;;;;;;;5059802;28;20520;-85
2023/11/10 10:31:03;;;;;;;1.57;1.47;;;;;;;;;;5047347;28;20519;-84
2023/11/10 10:33:36;;;;;;;1.57;1.10;;;;;;;;;;5044760;28;20448;-83
2023/11/10 10:36:06;;;;;;;1.63;1.07;;;;;;;;;;5041985;28;20598;-82
2023/11/10 10:38:41;;;;;;;2.87;0.90;;;;;;;;;;5048880;28;20532;-84
2023/11/10 10:41:28;;;;;;;3.93;0.80;;;;;;;;;;5043065;28;21029;-82
2023/11/10 10:44:05;;;;;;;2.10;0.90;;;;;;;;;;5041070;28;20452;-83
2023/11/10 10:46:37;;;;;;;1.33;0.77;;;;;;;;;;5036913;28;20472;-83
2023/11/10 10:49:12;;;;;;;2.30;0.93;;;;;;;;;;5042641;28;20448;-84
2023/11/10 10:51:43;;;;;;;2.63;1.30;;;;;;;;;;5050424;28;20440;-85
2023/11/10 10:54:15;;;;;;;9.80;1.30;;;;;;;;;;5055063;28;20456;-83
2023/11/10 10:56:47;;;;;;;1.57;0.77;;;;;;;;;;5056658;28;20484;-84
2023/11/10 10:59:28;;;;;;;2.97;0.80;;;;;;;;;;5044406;28;22053;-85
2023/11/10 11:02:03;;;;;;;2.10;0.97;;;;;;;;;;5037578;28;20796;-85
2023/11/10 11:04:43;;;;;;;2.60;0.97;;;;;;;;;;5042405;28;20460;-85
2023/11/10 11:07:43;;;;;;;1.30;0.77;;;;;;;;;;5043706;28;20480;-85
2023/11/10 11:10:33;;;;;;;1.43;0.80;;;;;;;;;;5047775;28;20456;-84
2023/11/10 11:13:20;;;;;;;2.50;1.17;;;;;;;;;;5045853;28;20444;-84
2023/11/10 11:16:15;;;;;;;4.80;1.10;;;;;;;;;;5030158;28;20471;-82
2023/11/10 11:18:53;;;;;;;1.30;0.80;;;;;;;;;;5059290;28;20467;-83
2023/11/10 11:21:24;;;;;;;1.50;1.13;;;;;;;;;;5044648;28;20517;-84
2023/11/10 11:24:06;;;;;;;1.97;0.90;;;;;;;;;;5044250;28;20456;-83
2023/11/10 11:26:41;;;;;;;2.27;0.73;;;;;;;;;;5055062;28;20494;-84
2023/11/10 11:29:12;;;;;;;2.20;0.80;;;;;;;;;;5063366;28;20440;-86
2023/11/10 11:31:46;;;;;;;1.87;1.10;;;;;;;;;;5056586;28;20474;-84
2023/11/10 11:34:23;;;;;;;1.53;0.70;;;;;;;;;;5041120;28;20546;-84
2023/11/10 11:37:08;;;;;;;2.50;0.70;;;;;;;;;;5054069;28;20455;-82
2023/11/10 11:39:45;;;;;;;1.30;0.70;;;;;;;;;;5039556;28;20502;-83
2023/11/10 11:42:36;;;;;;;2.60;0.90;;;;;;;;;;5046846;28;20470;-84
2023/11/10 11:45:11;;;;;;;2.27;0.63;;;;;;;;;;5062128;28;20464;-83
2023/11/10 11:47:39;;;;;;;1.30;1.10;;;;;;;;;;5061122;28;20467;-82
2023/11/10 11:50:09;;;;;;;4.13;1.03;;;;;;;;;;5072344;28;20459;-83
2023/11/10 11:52:37;;;;;;;2.30;0.90;;;;;;;;;;5064697;28;20464;-86
2023/11/10 11:55:07;;;;;;;1.70;0.83;;;;;;;;;;5051394;28;20475;-83
2023/11/10 11:57:35;;;;;;;2.93;0.90;;;;;;;;;;5056555;28;20471;-85
2023/11/10 12:00:08;;;;;;;4.10;1.07;;;;;;;;;;5049668;28;20479;-84
2023/11/10 12:02:39;;;;;;;0.67;0.40;;;;;;;;;;5040604;28;20457;-84
2023/11/10 12:05:19;;;;;;;1.80;1.37;;;;;;;;;;5064198;28;20475;-83
2023/11/10 12:07:58;;;;;;;1.13;0.80;;;;;;;;;;5050078;28;20486;-85
2023/11/10 12:10:42;;;;;;;1.83;1.07;;;;;;;;;;5041605;28;20444;-83
2023/11/10 12:13:51;;;;;;;1.93;1.10;;;;;;;;;;5051548;28;20440;-85
2023/11/10 12:16:30;;;;;;;2.20;0.60;;;;;;;;;;5055440;28;20464;-85
2023/11/10 12:19:11;;;;;;;4.37;0.50;;;;;;;;;;5065511;28;20466;-85
2023/11/10 12:21:59;;;;;;;1.20;0.63;;;;;;;;;;5051124;28;20456;-86
2023/11/10 12:24:37;;;;;;;2.00;0.93;;;;;;;;;;5033492;28;21030;-86
2023/11/10 12:29:54;;;;;;;0.90;0.60;;;;;;;;;;5134091;22;20489;-86
2023/11/10 12:32:30;;;;;;;3.17;2.30;;;;;;;;;;5037822;28;20449;-86
2023/11/10 12:35:11;;;;;;;4.30;1.03;;;;;;;;;;5037066;28;20458;-84
2023/11/10 12:38:07;;;;;;;0.97;0.60;;;;;;;;;;5037696;28;20475;-84
2023/11/10 12:40:44;;;;;;;1.43;0.73;;;;;;;;;;5044196;28;20434;-85
2023/11/10 12:43:24;;;;;;;1.10;0.53;;;;;;;;;;5036237;28;20525;-83
2023/11/10 12:46:01;;;;;;;0.83;0.63;;;;;;;;;;5029362;28;20581;-82
2023/11/10 12:48:39;;;;;;;2.77;0.77;;;;;;;;;;5035476;28;20434;-85
2023/11/10 12:51:15;;;;;;;1.70;0.70;;;;;;;;;;5035116;28;20474;-81
2023/11/10 12:54:08;;;;;;;0.50;0.40;;;;;;;;;;5015267;28;20457;-83
2023/11/10 12:56:46;;;;;;;1.33;0.50;;;;;;;;;;5013597;28;20484;-83
2023/11/10 12:59:24;;;;;;;1.50;0.50;;;;;;;;;;5025571;28;20550;-83
2023/11/10 13:02:06;;;;;;;0.60;0.40;;;;;;;;;;5019447;28;20481;-84
2023/11/10 13:04:52;;;;;;;0.90;0.50;;;;;;;;;;5019114;28;20451;-85
2023/11/10 13:07:49;;;;;;;0.80;0.60;;;;;;;;;;5024444;28;20477;-84
2023/11/10 13:10:21;;;;;;;1.63;0.60;;;;;;;;;;5025700;28;20442;-83
2023/11/10 13:12:49;;;;;;;0.60;0.40;;;;;;;;;;5021168;28;20474;-83
2023/11/10 13:15:17;;;;;;;1.30;0.60;;;;;;;;;;5014088;28;20546;-85
2023/11/10 13:17:52;;;;;;;0.40;0.40;;;;;;;;;;5017738;28;20554;-84
2023/11/10 13:20:21;;;;;;;1.13;0.40;;;;;;;;;;5024743;28;20585;-84
2023/11/10 13:22:50;;;;;;;0.57;0.40;;;;;;;;;;5010248;28;20477;-84
2023/11/10 13:25:21;;;;;;;1.83;0.60;;;;;;;;;;5029153;28;20470;-85
2023/11/10 13:28:06;;;;;;;0.83;0.40;;;;;;;;;;5027549;28;20486;-83
2023/11/10 13:30:36;;;;;;;0.50;0.50;;;;;;;;;;5022544;28;20550;-83
2023/11/10 13:33:11;;;;;;;0.80;0.60;;;;;;;;;;5025240;28;20465;-84
2023/11/10 13:38:26;;;;;;;0.97;0.50;;;;;;;;;;5030505;23;20490;-82
2023/11/10 13:40:57;;;;;;;1.03;0.30;;;;;;;;;;5005292;28;20443;-86
2023/11/10 13:44:20;;;;;;;0.50;0.50;;;;;;;;;;5083633;27;20495;-83
2023/11/10 13:47:03;;;;;;;0.90;0.90;;;;;;;;;;5031509;23;21018;-86
2023/11/10 13:49:41;;;;;;;0.40;0.40;;;;;;;;;;5002705;28;20522;-86
2023/11/10 13:52:14;;;;;;;1.00;0.43;;;;;;;;;;5002472;28;20496;-84
2023/11/10 13:54:43;;;;;;;1.67;0.60;;;;;;;;;;5002737;28;20447;-85
2023/11/10 13:57:29;;;;;;;0.77;0.47;;;;;;;;;;5003151;28;20467;-84
2023/11/10 14:00:26;;;;;;;0.50;0.40;;;;;;;;;;4990206;28;20505;-83
2023/11/10 14:03:04;;;;;;;1.03;0.60;;;;;;;;;;5003588;28;20558;-84
2023/11/10 14:05:37;;;;;;;4.80;0.70;;;;;;;;;;5002577;28;20459;-82
2023/11/10 14:08:19;;;;;;;2.23;0.60;;;;;;;;;;5004080;28;20518;-83
2023/11/10 14:11:13;;;;;;;2.23;0.60;;;;;;;;;;5001826;28;20477;-83
2023/11/10 14:13:55;;;;;;;1.27;0.70;;;;;;;;;;4999945;28;20451;-82
2023/11/10 14:16:48;;;;;;;1.07;1.03;;;;;;;;;;4996768;28;20470;-84
2023/11/10 14:22:27;;;;;;;1.10;0.60;;;;;;;;;;4999918;28;20510;-84
2023/11/10 14:24:56;;;;;;;2.20;0.50;;;;;;;;;;4997190;28;20494;-85
2023/11/10 14:27:50;;;;;;;0.90;0.57;;;;;;;;;;4983763;28;20992;-87
2023/11/10 14:30:30;;;;;;;1.07;0.70;;;;;;;;;;4988085;28;20448;-83
2023/11/10 14:33:27;;;;;;;0.63;0.60;;;;;;;;;;4998853;28;20567;-85
2023/11/10 14:36:13;;;;;;;0.93;0.50;;;;;;;;;;5009370;28;20463;-83
2023/11/10 14:38:56;;;;;;;2.00;0.93;;;;;;;;;;5003763;28;20453;-82
2023/11/10 14:41:33;;;;;;;2.43;0.77;;;;;;;;;;5000916;28;20463;-83
2023/11/10 14:44:12;;;;;;;1.90;0.70;;;;;;;;;;4992645;28;20431;-83
2023/11/10 14:46:53;;;;;;;0.50;0.50;;;;;;;;;;4989368;28;20486;-82
2023/11/10 14:49:23;;;;;;;3.70;0.73;;;;;;;;;;4997931;28;20451;-83
2023/11/10 14:52:08;;;;;;;0.67;0.50;;;;;;;;;;4999442;28;20474;-85
2023/11/10 14:54:46;;;;;;;1.70;0.70;;;;;;;;;;4941101;29;20473;-85
2023/11/10 14:57:31;;;;;;;3.30;1.10;;;;;;;;;;4944619;29;20446;-85
2023/11/10 15:00:12;;;;;;;1.27;0.60;;;;;;;;;;4926890;29;20462;-85
2023/11/10 15:02:44;;;;;;;1.10;0.70;;;;;;;;;;4928343;29;20489;-85
2023/11/10 15:05:57;;;;;;;1.70;0.57;;;;;;;;;;4931209;29;20540;-83
2023/11/10 15:08:30;;;;;;;2.30;0.80;;;;;;;;;;4942768;29;20485;-84
2023/11/10 15:11:13;;;;;;;2.70;0.70;;;;;;;;;;4946026;29;20446;-83
2023/11/10 15:13:54;;;;;;;10.87;7.33;;;;;;;;;;4993686;28;20456;-86
2023/11/10 15:16:45;;;;;;;5.60;1.80;;;;;;;;;;4997756;28;20456;-87
2023/11/10 15:19:28;;;;;;;1.30;0.77;;;;;;;;;;4998667;28;20448;-85
2023/11/10 15:22:05;;;;;;;4.10;1.20;;;;;;;;;;4983199;28;20448;-84
2023/11/10 15:24:40;;;;;;;1.40;0.70;;;;;;;;;;4999712;28;20452;-84
2023/11/10 15:27:09;;;;;;;2.90;0.70;;;;;;;;;;4990034;28;20487;-84
2023/11/10 15:29:57;;;;;;;1.90;1.10;;;;;;;;;;4990638;28;20449;-82
2023/11/10 15:32:49;;;;;;;2.23;1.10;;;;;;;;;;4984616;28;20504;-83
2023/11/10 15:38:31;;;;;;;2.43;0.83;;;;;;;;;;4984045;28;20480;-85
2023/11/10 15:41:24;;;;;;;3.30;1.30;;;;;;;;;;4980094;28;20493;-85
2023/11/10 15:44:00;;;;;;;1.33;0.70;;;;;;;;;;4989601;28;20507;-84
2023/11/10 15:46:40;;;;;;;1.73;0.90;;;;;;;;;;4988353;28;20484;-84
2023/11/10 15:49:43;;;;;;;2.20;1.17;;;;;;;;;;4983399;28;20496;-83
2023/11/10 15:52:27;;;;;;;3.33;1.17;;;;;;;;;;4987688;28;20447;-85
2023/11/10 15:55:17;;;;;;;2.10;1.27;;;;;;;;;;4986965;28;20471;-85
2023/11/10 15:58:05;;;;;;;2.67;1.23;;;;;;;;;;4982718;28;21021;-83
2023/11/10 16:00:57;;;;;;;4.20;1.30;;;;;;;;;;4985920;28;20499;-84
2023/11/10 16:03:49;;;;;;;2.77;1.27;;;;;;;;;;4988052;28;20505;-86
2023/11/10 16:06:20;;;;;;;1.83;0.87;;;;;;;;;;4982698;28;20474;-85
2023/11/10 16:08:51;;;;;;;1.80;1.00;;;;;;;;;;4989574;28;20455;-85
2023/11/10 16:11:33;;;;;;;2.40;1.20;;;;;;;;;;4986818;28;20440;-85
2023/11/10 16:20:15;;;;;;;3.57;1.70;;;;;;;;;;4893234;29;20489;-84
2023/11/10 16:22:59;;;;;;;7.07;1.50;;;;;;;;;;4893400;29;20497;-86
2023/11/10 16:25:33;;;;;;;3.13;1.00;;;;;;;;;;4889542;29;20468;-83
2023/11/10 16:28:05;;;;;;;2.13;0.97;;;;;;;;;;4891125;29;20941;-86
2023/11/10 16:30:51;;;;;;;5.43;1.73;;;;;;;;;;4893537;29;20468;-84
2023/11/10 16:33:47;;;;;;;4.60;1.57;;;;;;;;;;4890288;29;21008;-85
2023/11/10 16:36:19;;;;;;;2.40;1.57;;;;;;;;;;4879625;29;20473;-85
2023/11/10 16:39:08;;;;;;;2.97;1.50;;;;;;;;;;4893608;29;20532;-85
2023/11/10 16:44:34;;;;;;;4.00;2.00;;;;;;;;;;5058808;23;20495;-83
2023/11/10 16:47:19;;;;;;;2.50;1.43;;;;;;;;;;4878837;29;20465;-85
2023/11/10 16:50:00;;;;;;;;;;;;;;;;;;;;;
2023/11/10 16:52:41;;;;;;;3.53;1.27;;;;;;;;;;4889732;29;20468;-83
2023/11/10 16:55:46;;;;;;;2.17;1.10;;;;;;;;;;4887917;29;20505;-86
2023/11/10 16:58:59;;;;;;;;;;;;;;;;;;;;;
2023/11/10 17:49:43;;;;;;;3.53;1.53;;;;;;;;;;4924606;29;20486;-85
2023/11/10 17:52:47;;;;;;;;;;;;;;;;;;;;;
2023/11/10 17:59:32;;;;;;;3.77;1.30;;;;;;;;;;4923803;29;20803;-84
2023/11/10 18:02:29;;;;;;;3.60;1.60;;;;;;;;;;4882447;29;20486;-84
2023/11/10 18:05:10;;;;;;;4.77;2.00;;;;;;;;;;4916344;29;20482;-85
2023/11/10 18:07:50;;;;;;;1.60;1.50;;;;;;;;;;4905398;29;20455;-86
2023/11/10 18:10:38;;;;;;;1.80;1.47;;;;;;;;;;4891686;29;20448;-83
2023/11/10 18:13:27;;;;;;;5.60;2.00;;;;;;;;;;4912627;29;20426;-84
2023/11/10 18:16:53;;;;;;;5.03;2.73;;;;;;;;;;4935655;29;20454;-83
2023/11/10 18:19:38;;;;;;;3.17;1.87;;;;;;;;;;4918090;29;20481;-83
2023/11/10 18:22:33;;;;;;;4.80;1.53;;;;;;;;;;4912141;29;20446;-84
2023/11/10 18:25:25;;;;;;;2.53;1.43;;;;;;;;;;4898836;29;20545;-85
2023/11/10 18:28:04;;;;;;;4.97;2.27;;;;;;;;;;4926670;29;20438;-84